LFBH/LRH METAR and TAF weather

Enter ICAO airport designator
Station Type Date Time Source
LFBH METAR 2019/06/24 23:00 UTC NOAA

LFBH 242300Z AUTO 36003KT 320V040 CAVOK 20/18 Q1014 NOSIG


Station Type Date Time Source
LFBH Decoded METAR 2019/06/24 23:00 UTC NOAA

La Rochelle, France (LFBH) 46-09N 001-09W 10M
Jun 24, 2019 - 07:00 PM EDT / 2019.06.24 2300 UTC
Wind: from the N (360 degrees) at 3 MPH (3 KT) (direction variable):0
Visibility: greater than 7 mile(s):0
Temperature: 68 F (20 C)
Dew Point: 64 F (18 C)
Relative Humidity: 88%
Pressure (altimeter): 29.94 in. Hg (1014 hPa)
ob: LFBH 242300Z AUTO 36003KT 320V040 CAVOK 20/18 Q1014 NOSIG
cycle: 23

Station Type Date Time Source
LFBH TAF 2019/06/24 18:21 UTC NOAA

TAF LFBH 241700Z 2418/2518 04010KT CAVOK
TEMPO 2501/2503 32015G25KT BKN014 OVC035
BECMG 2503/2505 35010KT
BECMG 2508/2510 30007KT

Example: see airport list